Time;durP1;ratioP1;P1;durP2;ratioP2;P2;SDS_P1;SDS_P2;PMS_P1;PMS_P2;Temp;Humidity;BMP_temperature;BMP_pressure;BME280_temperature;BME280_humidity;BME280_pressure;Samples;Min_cycle;Max_cycle;Signal;HPM_P1;HPM_P2
2022/01/21 00:00:23;;;;;;;6.32;2.60;;;1.60;99.90;;;;;;5035246;28;20053;-77
2022/01/21 00:02:48;;;;;;;6.72;2.70;;;1.60;99.90;;;;;;5019447;28;20513;-77
2022/01/21 00:05:14;;;;;;;8.80;2.67;;;1.60;99.90;;;;;;5020786;28;20060;-78
2022/01/21 00:07:40;;;;;;;6.47;2.33;;;1.50;99.90;;;;;;5017602;28;20110;-78
2022/01/21 00:10:07;;;;;;;7.82;2.70;;;1.50;99.90;;;;;;5017994;28;20050;-78
2022/01/21 00:12:35;;;;;;;9.27;2.95;;;1.50;99.90;;;;;;5016912;28;20026;-77
2022/01/21 00:15:01;;;;;;;7.47;2.42;;;1.50;99.90;;;;;;5032590;28;20049;-80
2022/01/21 00:17:26;;;;;;;7.05;2.70;;;1.50;99.90;;;;;;5017698;28;20540;-77
2022/01/21 00:30:04;;;;;;;8.50;2.33;;;1.50;99.90;;;;;;5016960;28;20033;-77
2022/01/21 00:30:50;;;;;;;6.10;2.13;;;1.50;99.90;;;;;;5020515;28;20495;-77
2022/01/21 00:33:16;;;;;;;8.93;2.85;;;1.50;99.90;;;;;;5017692;28;20122;-78
2022/01/21 00:35:41;;;;;;;10.23;2.38;;;1.60;99.90;;;;;;5037761;28;20026;-78
2022/01/21 00:38:07;;;;;;;10.40;2.95;;;1.60;99.90;;;;;;5018559;28;20049;-78
2022/01/21 00:40:33;;;;;;;11.15;3.70;;;1.60;99.90;;;;;;5018140;28;20026;-78
2022/01/21 00:43:14;;;;;;;11.43;2.65;;;1.60;99.90;;;;;;5017416;28;20024;-77
2022/01/21 00:45:40;;;;;;;;;;;1.60;99.90;;;;;;5016580;28;20042;-77
2022/01/21 00:48:05;;;;;;;7.03;1.90;;;1.70;99.90;;;;;;5016601;28;20254;-77
2022/01/21 00:50:31;;;;;;;8.02;2.92;;;1.70;99.90;;;;;;5016700;28;20025;-77
2022/01/21 00:52:57;;;;;;;8.05;3.10;;;1.70;99.90;;;;;;5016291;28;20073;-77
2022/01/21 00:55:23;;;;;;;11.30;3.90;;;1.70;99.90;;;;;;5016685;28;20022;-77
2022/01/21 00:57:48;;;;;;;7.93;2.70;;;1.70;99.90;;;;;;5019035;28;20081;-76
2022/01/21 01:00:14;;;;;;;8.23;2.55;;;1.70;99.90;;;;;;5017086;28;20072;-78
2022/01/21 01:02:40;;;;;;;8.70;2.53;;;1.70;99.90;;;;;;5018678;28;20097;-77
2022/01/21 01:05:08;;;;;;;7.90;2.40;;;1.70;99.90;;;;;;5021962;28;20053;-76
2022/01/21 01:07:33;;;;;;;7.68;3.72;;;1.80;99.90;;;;;;5037612;28;20072;-77
2022/01/21 01:10:01;;;;;;;6.60;2.20;;;1.80;99.90;;;;;;5021367;28;20022;-77
2022/01/21 01:20:21;;;;;;;7.60;2.38;;;1.70;99.90;;;;;;5026475;28;20081;-76
2022/01/21 01:28:00;;;;;;;4.43;2.28;;;1.80;99.90;;;;;;5023721;28;20098;-77
2022/01/21 01:30:28;;;;;;;7.35;3.53;;;1.80;99.90;;;;;;5037868;28;20041;-78
2022/01/21 01:32:57;;;;;;;8.18;2.30;;;1.80;99.90;;;;;;5033488;23;20045;-72
2022/01/21 01:35:24;;;;;;;7.30;2.13;;;1.80;99.90;;;;;;5021736;28;20501;-73
2022/01/21 01:50:49;;;;;;;25.10;4.35;;;1.90;99.90;;;;;;5013259;28;20022;-73
2022/01/21 01:53:17;;;;;;;5.93;2.60;;;1.90;99.90;;;;;;5012946;28;20029;-73
2022/01/21 01:55:43;;;;;;;9.55;3.28;;;1.90;99.90;;;;;;5028615;28;20021;-72
2022/01/21 01:58:12;;;;;;;8.20;2.75;;;1.90;99.90;;;;;;5029725;28;20129;-73
2022/01/21 02:00:38;;;;;;;5.35;2.65;;;1.90;99.90;;;;;;5032303;28;20022;-74
2022/01/21 02:03:06;;;;;;;7.18;2.13;;;1.90;99.90;;;;;;5017374;28;20386;-73
2022/01/21 02:05:32;;;;;;;10.23;2.60;;;1.80;99.90;;;;;;5032495;28;20042;-72
2022/01/21 02:07:57;;;;;;;9.35;2.85;;;1.80;99.90;;;;;;5017345;28;20399;-72
2022/01/21 02:10:23;;;;;;;7.63;2.42;;;1.80;99.90;;;;;;5018312;28;20037;-75
2022/01/21 02:12:49;;;;;;;10.48;3.10;;;1.80;99.90;;;;;;5016809;28;20076;-72
2022/01/21 02:15:14;;;;;;;10.65;2.85;;;1.80;99.90;;;;;;5016892;28;20026;-72
2022/01/21 02:22:51;;;;;;;5.53;2.25;;;1.70;99.90;;;;;;5017208;28;20072;-73
2022/01/21 02:25:19;;;;;;;10.15;3.35;;;1.70;99.90;;;;;;5016721;28;20432;-73
2022/01/21 02:27:48;;;;;;;8.05;3.28;;;1.70;99.90;;;;;;5023803;28;20030;-72
2022/01/21 02:30:18;;;;;;;7.82;2.22;;;1.70;99.90;;;;;;5033882;28;20070;-72
2022/01/21 02:32:53;;;;;;;8.30;3.42;;;1.70;99.90;;;;;;5036445;28;20040;-73
2022/01/21 02:35:20;;;;;;;8.82;2.72;;;1.70;99.90;;;;;;5036427;28;20029;-72
2022/01/21 02:37:47;;;;;;;10.07;2.78;;;1.70;99.90;;;;;;5026858;28;20101;-73
2022/01/21 02:40:14;;;;;;;7.50;2.78;;;1.60;99.90;;;;;;5017395;28;20036;-73
2022/01/21 02:42:40;;;;;;;4.57;1.98;;;1.60;99.90;;;;;;5017188;28;20516;-73
2022/01/21 02:45:07;;;;;;;4.82;2.45;;;1.60;99.90;;;;;;5016564;28;20025;-73
2022/01/21 02:47:33;;;;;;;6.50;2.42;;;1.50;99.90;;;;;;5031369;28;20022;-73
2022/01/21 02:49:58;;;;;;;11.52;2.75;;;1.50;99.90;;;;;;5031842;28;20064;-73
2022/01/21 02:52:28;;;;;;;7.18;2.42;;;1.40;99.90;;;;;;5032168;28;20370;-74
2022/01/21 02:54:53;;;;;;;6.22;2.42;;;1.40;99.90;;;;;;5025437;28;20110;-73
2022/01/21 02:57:19;;;;;;;5.03;2.42;;;1.40;99.90;;;;;;5031170;28;20021;-72
2022/01/21 02:59:45;;;;;;;8.85;2.97;;;1.40;99.90;;;;;;5021412;28;20034;-73
2022/01/21 03:02:11;;;;;;;8.32;2.60;;;1.40;99.90;;;;;;5016935;28;20037;-74
2022/01/21 03:05:01;;;;;;;20.60;6.03;;;1.40;99.90;;;;;;5015790;28;20026;-73
2022/01/21 03:07:27;;;;;;;6.82;2.20;;;1.40;99.90;;;;;;5016390;28;20021;-74
2022/01/21 03:09:52;;;;;;;4.82;1.92;;;1.50;99.90;;;;;;5015912;28;20032;-73
2022/01/21 03:12:18;;;;;;;9.10;2.70;;;1.50;99.90;;;;;;5015687;28;20030;-73
2022/01/21 03:14:43;;;;;;;8.00;2.40;;;1.60;99.90;;;;;;5030640;28;20030;-73
2022/01/21 03:17:09;;;;;;;3.72;2.00;;;1.60;99.90;;;;;;5015647;28;20026;-73
2022/01/21 03:19:35;;;;;;;6.53;2.55;;;1.60;99.90;;;;;;5015199;28;20030;-73
2022/01/21 03:22:02;;;;;;;7.60;2.05;;;1.60;99.90;;;;;;5014896;28;20029;-73
2022/01/21 03:24:27;;;;;;;8.57;3.33;;;1.60;99.90;;;;;;5013578;28;20029;-73
2022/01/21 03:26:53;;;;;;;9.43;2.63;;;1.60;99.90;;;;;;5015195;28;20022;-72
2022/01/21 03:29:18;;;;;;;7.97;2.47;;;1.70;99.90;;;;;;5014974;28;20096;-73
2022/01/21 03:31:44;;;;;;;2.97;2.05;;;1.60;99.90;;;;;;5016091;28;20032;-73
2022/01/21 03:34:10;;;;;;;11.02;2.75;;;1.60;99.90;;;;;;5015646;28;20034;-73
2022/01/21 03:36:36;;;;;;;5.32;2.53;;;1.60;99.90;;;;;;5016352;28;20025;-73
2022/01/21 03:39:02;;;;;;;12.23;2.53;;;1.60;99.90;;;;;;5015200;28;20030;-73
2022/01/21 03:41:28;;;;;;;12.20;3.97;;;1.50;99.90;;;;;;5015511;28;20474;-73
2022/01/21 03:43:53;;;;;;;4.03;2.38;;;1.50;99.90;;;;;;5030041;28;20025;-73
2022/01/21 03:46:19;;;;;;;7.88;2.72;;;1.40;99.90;;;;;;5014869;28;20029;-73
2022/01/21 03:48:48;;;;;;;9.45;2.70;;;1.40;99.90;;;;;;5014537;28;20036;-73
2022/01/21 03:51:14;;;;;;;8.75;2.35;;;1.40;99.90;;;;;;5014475;28;20072;-73
2022/01/21 03:53:39;;;;;;;8.45;3.28;;;1.40;99.90;;;;;;5029828;28;20033;-73
2022/01/21 03:56:05;;;;;;;9.48;3.00;;;1.40;99.90;;;;;;5014410;28;20029;-73
2022/01/21 03:58:30;;;;;;;8.20;2.97;;;1.40;99.90;;;;;;5015066;28;20034;-73
2022/01/21 04:00:56;;;;;;;7.97;2.90;;;1.40;99.90;;;;;;5014350;28;20072;-73
2022/01/21 04:03:24;;;;;;;10.02;3.03;;;1.40;99.90;;;;;;5014246;28;20037;-73
2022/01/21 04:05:50;;;;;;;9.90;4.22;;;1.40;99.90;;;;;;5014184;28;20030;-73
2022/01/21 04:08:16;;;;;;;10.15;3.13;;;1.40;99.90;;;;;;5014045;28;20036;-73
2022/01/21 04:10:42;;;;;;;5.65;2.58;;;1.40;99.90;;;;;;5013869;28;20032;-73
2022/01/21 04:13:15;;;;;;;8.63;3.00;;;1.40;99.90;;;;;;5012860;28;20030;-71
2022/01/21 04:15:49;;;;;;;7.13;2.50;;;1.30;99.90;;;;;;5014061;28;20137;-72
2022/01/21 04:18:15;;;;;;;9.18;2.65;;;1.30;99.90;;;;;;5014293;28;20065;-72
2022/01/21 04:20:42;;;;;;;10.43;3.38;;;1.30;99.90;;;;;;5013372;28;20086;-72
2022/01/21 04:23:10;;;;;;;6.47;3.28;;;1.30;99.90;;;;;;5014365;28;20429;-73
2022/01/21 04:25:35;;;;;;;14.23;3.45;;;1.30;99.90;;;;;;5014006;28;20080;-72
2022/01/21 04:28:01;;;;;;;4.55;2.10;;;1.30;99.90;;;;;;5013921;28;20421;-71
2022/01/21 04:30:27;;;;;;;8.27;3.20;;;1.20;99.90;;;;;;5013935;28;20028;-73
2022/01/21 04:32:52;;;;;;;14.32;3.58;;;1.30;99.90;;;;;;5018064;28;20038;-73
2022/01/21 04:35:18;;;;;;;8.18;2.70;;;1.20;99.90;;;;;;5014025;28;20036;-73
2022/01/21 04:37:52;;;;;;;7.90;2.80;;;1.30;99.90;;;;;;5026438;28;20041;-72
2022/01/21 04:40:20;;;;;;;8.23;2.80;;;1.20;99.90;;;;;;5032500;28;20045;-72
2022/01/21 04:48:14;;;;;;;7.95;3.30;;;1.20;99.90;;;;;;5032025;28;20037;-73
2022/01/21 04:50:51;;;;;;;9.45;3.28;;;1.20;99.90;;;;;;5020644;28;20038;-73
2022/01/21 04:53:17;;;;;;;9.77;3.33;;;1.20;99.90;;;;;;5015954;28;20389;-73
2022/01/21 04:55:42;;;;;;;10.50;3.42;;;1.10;99.90;;;;;;5013985;28;20036;-73
2022/01/21 04:58:08;;;;;;;7.20;4.05;;;1.20;99.90;;;;;;5014168;28;20026;-73
2022/01/21 05:00:34;;;;;;;11.52;3.45;;;1.10;99.90;;;;;;5014940;28;20109;-73
2022/01/21 05:03:00;;;;;;;12.23;3.58;;;1.10;99.90;;;;;;5014012;28;20032;-72
2022/01/21 05:05:26;;;;;;;9.35;3.08;;;1.10;99.90;;;;;;5013854;28;20049;-72
2022/01/21 05:07:52;;;;;;;10.15;3.20;;;1.10;99.90;;;;;;5022244;28;20022;-73
2022/01/21 05:10:18;;;;;;;10.32;3.05;;;1.00;99.90;;;;;;5026984;28;20355;-73
2022/01/21 05:12:43;;;;;;;11.35;3.95;;;1.00;99.90;;;;;;5013366;28;20037;-73
2022/01/21 05:15:44;;;;;;;9.65;3.42;;;1.10;99.90;;;;;;5014401;28;20033;-72
2022/01/21 05:18:09;;;;;;;12.38;5.03;;;1.10;99.90;;;;;;5012968;28;20022;-73
2022/01/21 05:20:35;;;;;;;11.63;3.67;;;1.10;99.90;;;;;;5027899;28;20030;-73
2022/01/21 05:23:00;;;;;;;8.75;4.40;;;1.10;99.90;;;;;;5013671;28;20045;-73
2022/01/21 05:25:26;;;;;;;5.90;3.20;;;1.20;99.90;;;;;;5012994;28;20493;-72
2022/01/21 05:27:54;;;;;;;9.85;3.35;;;1.20;99.90;;;;;;5017864;28;20068;-72
2022/01/21 05:30:19;;;;;;;15.35;4.63;;;1.20;99.90;;;;;;5017620;28;20477;-73
2022/01/21 05:32:45;;;;;;;10.45;3.22;;;1.20;99.90;;;;;;5027668;28;20049;-73
2022/01/21 05:35:11;;;;;;;6.85;3.55;;;1.20;99.90;;;;;;5013200;28;20033;-72
2022/01/21 05:37:37;;;;;;;11.10;3.33;;;1.30;99.90;;;;;;5012831;28;20029;-72
2022/01/21 05:40:09;;;;;;;6.95;3.25;;;1.30;99.90;;;;;;5013117;28;20396;-73
2022/01/21 05:42:36;;;;;;;15.00;3.88;;;1.30;99.90;;;;;;5013194;28;20105;-73
2022/01/21 05:47:29;;;;;;;9.15;3.80;;;1.30;99.90;;;;;;5016194;28;20379;-74
2022/01/21 05:49:55;;;;;;;10.15;4.70;;;1.30;99.90;;;;;;5013708;28;20061;-73
2022/01/21 05:52:28;;;;;;;9.27;4.88;;;1.30;99.90;;;;;;5028409;28;20084;-72
2022/01/21 05:54:53;;;;;;;8.05;3.33;;;1.30;99.90;;;;;;5028296;28;20029;-73
2022/01/21 05:57:19;;;;;;;5.95;3.63;;;1.30;99.90;;;;;;5012946;28;20042;-72
2022/01/21 05:59:45;;;;;;;8.98;3.42;;;1.30;99.90;;;;;;5012645;28;20524;-72
2022/01/21 06:02:12;;;;;;;9.10;2.97;;;1.30;99.90;;;;;;5028224;28;20045;-72
2022/01/21 06:04:39;;;;;;;6.22;2.97;;;1.30;99.90;;;;;;5012674;28;20070;-74
2022/01/21 06:07:08;;;;;;;7.45;3.50;;;1.30;99.90;;;;;;5013208;28;20398;-72
2022/01/21 06:09:33;;;;;;;10.18;3.40;;;1.30;99.90;;;;;;5012386;28;20071;-72
2022/01/21 06:11:59;;;;;;;8.82;3.40;;;1.30;99.90;;;;;;5013034;28;20112;-73
2022/01/21 06:14:25;;;;;;;12.00;3.80;;;1.30;99.90;;;;;;5013653;28;20034;-73
2022/01/21 06:16:51;;;;;;;6.25;2.60;;;1.20;99.90;;;;;;5012922;28;20028;-73
2022/01/21 06:19:17;;;;;;;8.57;3.28;;;1.20;99.90;;;;;;5012861;28;20481;-72
2022/01/21 06:21:43;;;;;;;13.02;3.28;;;1.30;99.90;;;;;;5012348;28;20496;-73
2022/01/21 06:24:09;;;;;;;10.20;3.65;;;1.40;99.90;;;;;;5028171;28;20110;-71
2022/01/21 06:26:35;;;;;;;8.98;4.03;;;1.70;99.90;;;;;;5012438;28;20030;-73
2022/01/21 06:29:01;;;;;;;11.43;5.05;;;1.60;99.90;;;;;;5028773;28;20034;-73
2022/01/21 06:31:27;;;;;;;9.32;4.53;;;1.50;99.90;;;;;;5012924;28;20022;-73
2022/01/21 06:33:53;;;;;;;14.07;5.78;;;1.40;99.90;;;;;;5013314;28;20405;-72
2022/01/21 06:36:19;;;;;;;13.25;4.97;;;1.50;99.90;;;;;;5014551;28;20026;-73
2022/01/21 06:38:44;;;;;;;7.97;3.40;;;1.40;99.90;;;;;;5013737;28;20029;-73
2022/01/21 06:41:10;;;;;;;8.00;3.63;;;1.40;99.90;;;;;;5013494;28;20026;-73
2022/01/21 06:43:35;;;;;;;12.25;3.67;;;1.40;99.90;;;;;;5013578;28;20022;-72
2022/01/21 06:46:01;;;;;;;20.48;4.32;;;1.40;99.90;;;;;;5016907;28;20382;-73
2022/01/21 06:48:26;;;;;;;13.23;3.35;;;1.40;99.90;;;;;;5016667;28;20041;-73
2022/01/21 06:50:52;;;;;;;5.82;3.13;;;1.40;99.90;;;;;;5017252;28;20034;-72
2022/01/21 06:53:18;;;;;;;5.80;3.97;;;1.40;99.90;;;;;;5028498;28;20022;-72
2022/01/21 06:55:43;;;;;;;12.07;4.50;;;1.30;99.90;;;;;;5029965;28;20030;-73
2022/01/21 06:58:09;;;;;;;10.55;3.95;;;1.40;99.90;;;;;;5029509;28;20034;-74
2022/01/21 07:00:35;;;;;;;7.93;3.90;;;1.30;99.90;;;;;;5022256;28;20030;-73
2022/01/21 07:03:00;;;;;;;10.07;5.65;;;1.30;99.90;;;;;;5017142;28;20069;-74
2022/01/21 07:05:29;;;;;;;16.95;4.13;;;1.30;99.90;;;;;;5016900;28;20026;-72
2022/01/21 07:07:56;;;;;;;11.20;4.40;;;1.30;99.90;;;;;;5018235;28;20227;-73
2022/01/21 07:10:21;;;;;;;8.80;3.60;;;1.30;99.90;;;;;;5019506;28;20116;-74
2022/01/21 07:12:47;;;;;;;11.52;4.88;;;1.20;99.90;;;;;;5016473;28;20090;-73
2022/01/21 07:15:15;;;;;;;11.43;5.28;;;1.30;99.90;;;;;;5016203;28;20061;-72
2022/01/21 07:17:42;;;;;;;8.90;4.07;;;1.30;99.90;;;;;;5016173;28;20018;-73
2022/01/21 07:20:09;;;;;;;8.35;3.92;;;1.30;99.90;;;;;;5023437;28;20026;-72
2022/01/21 07:22:35;;;;;;;7.47;4.03;;;1.30;99.90;;;;;;5030351;28;20161;-74
2022/01/21 07:25:00;;;;;;;8.38;4.07;;;1.30;99.90;;;;;;5021487;28;20022;-72
2022/01/21 07:27:26;;;;;;;16.42;6.43;;;1.30;99.90;;;;;;5021266;28;20026;-73
2022/01/21 07:29:52;;;;;;;13.43;4.80;;;1.30;99.90;;;;;;5017190;28;20096;-74
2022/01/21 07:32:17;;;;;;;9.10;4.15;;;1.30;99.90;;;;;;5038096;23;20026;-78
2022/01/21 07:34:43;;;;;;;10.98;4.07;;;1.30;99.90;;;;;;5018825;28;20025;-78
2022/01/21 07:37:08;;;;;;;10.45;4.90;;;1.30;99.90;;;;;;5019715;28;20100;-78
2022/01/21 07:39:34;;;;;;;7.15;4.25;;;1.30;99.90;;;;;;5019012;28;20037;-77
2022/01/21 07:41:59;;;;;;;7.72;5.32;;;1.40;99.90;;;;;;5017330;28;20049;-77
2022/01/21 07:44:25;;;;;;;11.32;4.90;;;1.40;99.90;;;;;;5001113;28;20073;-77
2022/01/21 07:46:51;;;;;;;12.10;4.85;;;1.40;99.90;;;;;;4998302;28;20022;-77
2022/01/21 07:49:16;;;;;;;15.15;5.35;;;1.50;99.90;;;;;;4996574;28;20113;-77
2022/01/21 07:51:43;;;;;;;12.65;4.85;;;1.50;99.90;;;;;;4997315;28;20496;-77
2022/01/21 07:54:09;;;;;;;11.60;5.30;;;1.50;99.90;;;;;;4999277;28;20034;-77
2022/01/21 07:56:36;;;;;;;7.60;4.13;;;1.50;99.90;;;;;;4996184;28;20442;-77
2022/01/21 07:59:09;;;;;;;10.30;5.43;;;1.60;99.90;;;;;;4997265;28;20053;-77
2022/01/21 08:01:35;;;;;;;9.15;5.80;;;1.60;99.90;;;;;;4998541;28;20504;-78
2022/01/21 08:04:01;;;;;;;10.63;4.65;;;1.70;99.90;;;;;;4997365;28;20026;-78
2022/01/21 08:06:27;;;;;;;9.60;5.15;;;1.70;99.90;;;;;;4998536;28;20429;-77
2022/01/21 08:08:54;;;;;;;12.23;7.00;;;1.80;99.90;;;;;;4996877;28;20033;-77
2022/01/21 08:11:20;;;;;;;10.38;4.93;;;1.70;99.90;;;;;;4996292;28;20025;-78
2022/01/21 08:13:46;;;;;;;11.63;5.93;;;1.80;99.90;;;;;;4997311;28;20037;-78
2022/01/21 08:16:11;;;;;;;8.68;5.32;;;1.80;99.90;;;;;;4996786;28;20030;-77
2022/01/21 08:18:37;;;;;;;10.07;4.82;;;1.90;99.90;;;;;;4997656;28;20042;-78
2022/01/21 08:21:03;;;;;;;8.75;4.47;;;1.90;99.90;;;;;;4997181;28;20037;-77
2022/01/21 08:23:28;;;;;;;8.48;4.25;;;2.00;99.90;;;;;;4997758;28;20035;-78
2022/01/21 08:25:55;;;;;;;9.75;4.63;;;2.00;99.90;;;;;;4996441;28;20036;-78
2022/01/21 08:28:20;;;;;;;9.85;4.70;;;1.90;99.90;;;;;;5006258;28;20050;-78
2022/01/21 08:30:46;;;;;;;14.80;6.47;;;1.90;99.90;;;;;;5005050;28;20458;-78
2022/01/21 08:33:12;;;;;;;14.85;5.82;;;1.90;99.90;;;;;;5018219;28;20096;-78
2022/01/21 08:35:37;;;;;;;14.80;4.75;;;1.90;99.90;;;;;;5019174;28;20006;-77
2022/01/21 08:38:04;;;;;;;17.25;5.75;;;1.90;99.90;;;;;;5018919;28;20030;-77
2022/01/21 08:40:30;;;;;;;11.23;4.65;;;2.10;99.90;;;;;;5016901;28;20242;-78
2022/01/21 08:42:56;;;;;;;10.30;4.20;;;2.10;99.90;;;;;;5016515;28;20597;-78
2022/01/21 08:45:22;;;;;;;11.13;4.65;;;2.10;99.90;;;;;;4999801;28;20033;-79
2022/01/21 08:47:49;;;;;;;10.45;5.00;;;2.00;99.90;;;;;;4996861;28;20026;-77
2022/01/21 08:50:18;;;;;;;13.30;4.78;;;2.00;99.90;;;;;;5000422;28;20026;-78
2022/01/21 08:52:44;;;;;;;15.02;5.63;;;2.10;99.90;;;;;;5006070;28;20018;-77
2022/01/21 08:55:13;;;;;;;14.90;5.70;;;2.20;99.90;;;;;;5017783;28;20030;-78
2022/01/21 08:57:41;;;;;;;12.98;5.47;;;2.30;99.90;;;;;;5016894;28;20026;-76
2022/01/21 09:00:18;;;;;;;9.70;4.30;;;2.20;99.90;;;;;;5017453;28;20026;-77
2022/01/21 09:02:44;;;;;;;8.23;5.45;;;2.20;99.90;;;;;;5017916;28;20046;-77
2022/01/21 09:05:10;;;;;;;11.98;5.30;;;2.30;99.90;;;;;;5011812;28;20037;-78
2022/01/21 09:07:36;;;;;;;12.02;5.50;;;2.30;99.90;;;;;;4997939;28;20058;-78
2022/01/21 09:10:03;;;;;;;16.05;5.25;;;2.30;99.90;;;;;;4995641;28;20029;-78
2022/01/21 09:12:29;;;;;;;17.90;5.00;;;2.40;99.90;;;;;;4996976;28;20030;-78
2022/01/21 09:14:55;;;;;;;12.65;4.93;;;2.40;99.90;;;;;;4997210;28;20112;-77
2022/01/21 09:17:20;;;;;;;9.70;5.20;;;2.40;99.90;;;;;;4996626;28;20026;-78
2022/01/21 09:19:46;;;;;;;11.30;6.90;;;2.50;99.90;;;;;;4997208;28;20270;-77
2022/01/21 09:22:12;;;;;;;9.05;5.97;;;2.60;99.90;;;;;;4997135;28;20491;-77
2022/01/21 09:24:37;;;;;;;10.57;5.03;;;2.60;99.90;;;;;;4997377;28;20110;-75
2022/01/21 09:27:05;;;;;;;13.50;4.93;;;2.50;99.90;;;;;;4996204;28;20395;-79
2022/01/21 09:29:31;;;;;;;15.80;4.63;;;2.50;99.90;;;;;;4997040;28;20027;-79
2022/01/21 09:31:57;;;;;;;19.98;8.38;;;2.40;99.90;;;;;;4997484;28;20041;-78
2022/01/21 09:34:24;;;;;;;8.43;4.90;;;2.40;99.90;;;;;;4996351;28;20034;-78
2022/01/21 09:36:51;;;;;;;16.17;5.28;;;2.50;99.90;;;;;;4999306;28;20058;-78
2022/01/21 09:39:16;;;;;;;11.52;4.97;;;2.50;99.90;;;;;;4998644;28;20050;-78
2022/01/21 09:41:43;;;;;;;10.32;5.22;;;2.60;99.90;;;;;;4997415;28;20368;-76
2022/01/21 09:44:13;;;;;;;13.40;4.90;;;2.60;99.90;;;;;;5004233;28;20082;-77
2022/01/21 09:46:47;;;;;;;9.27;4.22;;;2.50;99.90;;;;;;5005562;28;20050;-77
2022/01/21 09:49:47;;;;;;;15.20;5.18;;;2.50;99.90;;;;;;4999983;28;20023;-77
2022/01/21 09:52:08;;;;;;;12.30;5.50;;;2.50;99.90;;;;;;4993959;28;20104;-77
2022/01/21 09:54:37;;;;;;;10.88;5.00;;;2.60;99.90;;;;;;4998812;28;20385;-77
2022/01/21 09:57:05;;;;;;;12.00;6.55;;;2.70;99.90;;;;;;5001897;28;20032;-78
2022/01/21 09:59:34;;;;;;;15.77;5.82;;;2.70;99.90;;;;;;4998292;28;20113;-78
2022/01/21 10:02:08;;;;;;;11.40;4.70;;;2.90;99.90;;;;;;4997152;28;20069;-77
2022/01/21 10:04:37;;;;;;;8.63;4.97;;;2.90;99.90;;;;;;4998843;28;20023;-79
2022/01/21 10:07:03;;;;;;;11.27;7.00;;;3.00;99.90;;;;;;4996743;28;20026;-77
2022/01/21 10:09:29;;;;;;;8.40;5.05;;;3.00;99.90;;;;;;4996267;28;20090;-78
2022/01/21 10:11:57;;;;;;;9.38;4.20;;;3.00;99.90;;;;;;4996161;28;20030;-76
2022/01/21 10:14:27;;;;;;;11.40;5.18;;;3.00;99.90;;;;;;4996599;28;20037;-78
2022/01/21 10:16:54;;;;;;;9.20;5.35;;;3.20;99.90;;;;;;4997358;28;20037;-78
2022/01/21 10:19:25;;;;;;;12.70;6.00;;;3.00;99.90;;;;;;4998840;28;20053;-78
2022/01/21 10:22:06;;;;;;;7.38;5.30;;;3.00;99.90;;;;;;5002445;28;20030;-78
2022/01/21 10:24:35;;;;;;;8.05;5.65;;;3.20;99.90;;;;;;5001916;28;20090;-78
2022/01/21 10:27:01;;;;;;;9.98;5.75;;;3.10;99.90;;;;;;5000030;28;20072;-78
2022/01/21 10:29:41;;;;;;;9.90;5.32;;;3.00;99.90;;;;;;5004426;28;20027;-78
2022/01/21 10:32:08;;;;;;;14.43;4.85;;;3.10;99.90;;;;;;5019960;28;20041;-78
2022/01/21 10:34:44;;;;;;;10.95;4.55;;;3.00;99.90;;;;;;5018715;28;20034;-77
2022/01/21 10:37:30;;;;;;;12.30;5.88;;;3.00;99.90;;;;;;5019855;28;20019;-78
2022/01/21 10:40:03;;;;;;;12.77;4.72;;;2.90;99.90;;;;;;5021132;28;20053;-78
2022/01/21 10:42:29;;;;;;;11.40;4.65;;;2.90;99.90;;;;;;5020380;28;20019;-78
2022/01/21 10:44:56;;;;;;;13.02;4.80;;;2.90;99.90;;;;;;5005740;28;20521;-78
2022/01/21 10:47:30;;;;;;;10.80;4.30;;;2.80;99.90;;;;;;5004914;28;20026;-78
2022/01/21 10:50:11;;;;;;;13.60;4.70;;;2.90;99.90;;;;;;5008046;28;20085;-77
2022/01/21 10:52:49;;;;;;;6.57;3.90;;;3.10;99.90;;;;;;5017763;28;20025;-78
2022/01/21 10:55:35;;;;;;;10.73;3.97;;;3.00;99.90;;;;;;5017570;28;20042;-78
2022/01/21 10:58:10;;;;;;;9.02;4.15;;;3.10;99.90;;;;;;5018642;28;20015;-80
2022/01/21 11:00:37;;;;;;;9.25;4.25;;;3.20;99.90;;;;;;5017279;28;20033;-78
2022/01/21 11:03:15;;;;;;;8.55;3.92;;;3.30;99.90;;;;;;5004062;28;20034;-78
2022/01/21 11:05:45;;;;;;;12.95;5.38;;;3.40;99.90;;;;;;5004657;28;20113;-77
2022/01/21 11:08:13;;;;;;;9.52;4.10;;;3.40;99.90;;;;;;5002212;28;20494;-78
2022/01/21 11:10:49;;;;;;;9.07;4.40;;;3.30;99.90;;;;;;5002876;28;20114;-77
2022/01/21 11:13:18;;;;;;;9.27;3.65;;;3.50;99.90;;;;;;5007976;28;20006;-76
2022/01/21 11:15:54;;;;;;;7.93;3.90;;;3.50;99.90;;;;;;5016207;28;20041;-77
2022/01/21 11:18:21;;;;;;;8.32;3.60;;;3.40;99.90;;;;;;5018866;28;20087;-77
2022/01/21 11:21:08;;;;;;;6.30;3.30;;;3.50;99.90;;;;;;5007065;28;20015;-78
2022/01/21 11:23:37;;;;;;;10.55;4.18;;;3.60;99.90;;;;;;5002195;28;20025;-78
2022/01/21 11:26:08;;;;;;;11.15;3.80;;;3.50;99.90;;;;;;5002074;28;20038;-79
2022/01/21 11:28:39;;;;;;;9.60;3.80;;;3.50;99.90;;;;;;5017198;28;20014;-78
2022/01/21 11:31:05;;;;;;;10.32;3.40;;;3.60;99.90;;;;;;5017764;28;20029;-78
2022/01/21 11:33:31;;;;;;;13.75;4.22;;;3.50;99.90;;;;;;5019380;28;20026;-78
2022/01/21 11:35:57;;;;;;;9.55;3.20;;;3.40;99.90;;;;;;5010338;28;20037;-77
2022/01/21 11:38:25;;;;;;;7.05;3.17;;;3.50;99.90;;;;;;5004891;28;20460;-77
2022/01/21 11:40:53;;;;;;;7.22;4.20;;;3.50;99.90;;;;;;5003348;28;20015;-77
2022/01/21 11:43:19;;;;;;;11.57;3.22;;;3.50;99.90;;;;;;5001712;28;20473;-77
2022/01/21 11:50:55;;;;;;;7.32;3.25;;;3.40;99.90;;;;;;5003466;28;20086;-79
2022/01/21 11:53:43;;;;;;;7.22;3.20;;;3.50;99.90;;;;;;5002872;28;20065;-78
2022/01/21 11:56:31;;;;;;;9.70;4.13;;;3.50;99.90;;;;;;5001614;28;20030;-77
2022/01/21 11:59:06;;;;;;;10.68;3.30;;;3.60;99.90;;;;;;5002210;28;20490;-78
2022/01/21 12:01:36;;;;;;;7.63;2.50;;;3.70;99.90;;;;;;5007435;28;20026;-77
2022/01/21 12:04:03;;;;;;;8.98;3.90;;;3.50;99.90;;;;;;5004235;28;20034;-77
2022/01/21 12:06:39;;;;;;;8.48;2.83;;;3.40;99.90;;;;;;5020461;28;20456;-79
2022/01/21 12:09:05;;;;;;;9.90;2.90;;;3.40;99.90;;;;;;5000642;28;20034;-77
2022/01/21 12:11:37;;;;;;;9.80;4.10;;;3.40;99.90;;;;;;5005309;28;20104;-77
2022/01/21 12:14:28;;;;;;;6.55;2.70;;;3.50;99.90;;;;;;5000703;28;20060;-77
2022/01/21 12:17:11;;;;;;;7.85;2.92;;;3.50;99.90;;;;;;4999777;28;20036;-78
2022/01/21 12:19:39;;;;;;;4.07;2.50;;;3.40;99.90;;;;;;5004553;28;20026;-77
2022/01/21 12:22:17;;;;;;;8.68;3.45;;;3.50;99.90;;;;;;5007445;28;20495;-78
2022/01/21 12:25:04;;;;;;;11.32;4.82;;;3.50;99.90;;;;;;5004729;28;20026;-79
2022/01/21 12:27:31;;;;;;;8.02;2.60;;;3.50;99.90;;;;;;5000288;28;20474;-78
2022/01/21 12:30:26;;;;;;;6.35;2.47;;;3.50;99.90;;;;;;4999935;28;20037;-77
2022/01/21 12:32:56;;;;;;;9.60;2.30;;;3.40;99.90;;;;;;5000185;28;20486;-78
2022/01/21 12:35:22;;;;;;;10.27;2.83;;;3.40;99.90;;;;;;5000159;28;20577;-77
2022/01/21 12:41:22;;;;;;;10.57;2.67;;;3.50;99.90;;;;;;4956765;29;20027;-77
2022/01/21 12:43:48;;;;;;;9.18;2.65;;;3.70;99.90;;;;;;4990081;28;20035;-78
2022/01/21 12:46:16;;;;;;;6.70;3.13;;;3.80;99.90;;;;;;5014505;28;20554;-78
2022/01/21 12:48:44;;;;;;;7.80;2.75;;;3.70;99.90;;;;;;5005934;28;20029;-78
2022/01/21 12:51:18;;;;;;;10.10;3.28;;;3.70;99.90;;;;;;4999999;28;20102;-78
2022/01/21 12:56:54;;;;;;;12.27;2.50;;;3.70;99.90;;;;;;5004471;28;20056;-78
2022/01/21 12:59:25;;;;;;;5.18;2.13;;;3.70;99.90;;;;;;5000287;28;20034;-77
2022/01/21 13:01:52;;;;;;;9.35;2.67;;;3.60;99.90;;;;;;5009454;28;20041;-78
2022/01/21 13:04:23;;;;;;;14.35;3.65;;;3.60;99.90;;;;;;5009027;28;20026;-78
2022/01/21 13:07:12;;;;;;;12.85;3.83;;;3.60;99.90;;;;;;5025174;28;20053;-78
2022/01/21 13:10:08;;;;;;;8.77;2.85;;;3.70;99.90;;;;;;5025919;28;20049;-76
2022/01/21 13:13:00;;;;;;;16.20;4.80;;;3.90;99.90;;;;;;5002780;28;20493;-80
2022/01/21 13:15:39;;;;;;;9.40;3.35;;;3.80;99.90;;;;;;5000085;28;20023;-80
2022/01/21 13:18:07;;;;;;;8.15;2.83;;;3.80;99.90;;;;;;5001916;28;20048;-78
2022/01/21 13:20:35;;;;;;;8.68;2.80;;;3.80;99.90;;;;;;5010180;28;20022;-77
2022/01/21 13:23:02;;;;;;;8.90;2.42;;;3.70;99.90;;;;;;5009390;28;20085;-76
2022/01/21 13:25:31;;;;;;;7.47;2.78;;;3.90;99.90;;;;;;5008822;28;20394;-78
2022/01/21 13:27:59;;;;;;;11.20;2.90;;;4.00;99.90;;;;;;5008112;28;20022;-77
2022/01/21 13:30:28;;;;;;;7.95;2.03;;;3.90;99.90;;;;;;5004311;28;20105;-77
2022/01/21 13:33:08;;;;;;;7.82;3.70;;;3.80;99.90;;;;;;5014541;23;20042;-73
2022/01/21 13:35:37;;;;;;;6.03;1.80;;;3.70;99.90;;;;;;5014188;28;20037;-74
2022/01/21 13:38:12;;;;;;;10.50;2.55;;;3.70;99.90;;;;;;5029992;28;20382;-74
2022/01/21 13:40:41;;;;;;;17.48;3.72;;;3.80;99.90;;;;;;5015004;28;20026;-73
2022/01/21 13:43:08;;;;;;;10.85;2.90;;;3.80;99.90;;;;;;5014262;28;20689;-74
2022/01/21 13:45:34;;;;;;;13.20;2.25;;;3.90;99.90;;;;;;5014313;28;20018;-74
2022/01/21 13:48:03;;;;;;;6.93;1.80;;;3.80;99.90;;;;;;5013369;28;20030;-73
2022/01/21 13:50:30;;;;;;;10.50;2.50;;;3.80;99.90;;;;;;5013430;28;20237;-73
2022/01/21 13:53:06;;;;;;;5.03;2.55;;;3.90;99.90;;;;;;5013585;28;20044;-74
2022/01/21 13:55:39;;;;;;;5.78;1.80;;;3.90;99.90;;;;;;5015136;28;20422;-74
2022/01/21 13:58:11;;;;;;;4.57;1.55;;;3.80;99.90;;;;;;5015369;28;20026;-74